createdAt,value
2023-05-17T00:02:24.704Z,4.17
2023-05-17T00:05:04.930Z,3.10
2023-05-17T00:07:34.541Z,2.83
2023-05-17T00:10:02.919Z,2.30
2023-05-17T00:12:32.865Z,4.70
2023-05-17T00:15:03.464Z,3.23
2023-05-17T00:17:31.591Z,3.30
2023-05-17T00:20:00.089Z,3.40
2023-05-17T00:22:28.603Z,2.90
2023-05-17T00:24:57.948Z,3.33
2023-05-17T00:27:26.372Z,3.93
2023-05-17T00:29:59.194Z,3.80
2023-05-17T00:32:29.838Z,4.80
2023-05-17T00:35:00.658Z,2.70
2023-05-17T00:37:28.799Z,3.33
2023-05-17T00:39:56.928Z,5.33
2023-05-17T00:42:33.732Z,10.70
2023-05-17T00:45:08.928Z,7.87
2023-05-17T00:47:38.981Z,3.10
2023-05-17T00:50:08.098Z,6.50
2023-05-17T00:52:38.133Z,2.80
2023-05-17T00:55:07.344Z,4.83
2023-05-17T00:57:43.935Z,2.50
2023-05-17T01:00:17.845Z,4.00
2023-05-17T01:02:55.003Z,3.00
2023-05-17T01:05:28.782Z,3.10
2023-05-17T01:07:57.190Z,2.70
2023-05-17T01:10:29.230Z,2.30
2023-05-17T01:13:13.523Z,2.77
2023-05-17T01:15:51.223Z,4.00
2023-05-17T01:18:23.949Z,3.40
2023-05-17T01:20:52.699Z,3.50
2023-05-17T01:23:33.830Z,3.00
2023-05-17T01:26:09.186Z,2.70
2023-05-17T01:28:42.441Z,4.97
2023-05-17T01:31:14.493Z,4.60
2023-05-17T01:33:42.936Z,3.73
2023-05-17T01:36:16.392Z,3.60
2023-05-17T01:38:47.127Z,3.13
2023-05-17T01:41:18.830Z,3.00
2023-05-17T01:43:52.427Z,2.50
2023-05-17T01:46:25.181Z,3.43
2023-05-17T01:48:58.552Z,4.10
2023-05-17T01:51:36.547Z,3.60
2023-05-17T01:54:09.548Z,4.27
2023-05-17T01:56:40.075Z,6.97
2023-05-17T01:59:11.304Z,5.20
2023-05-17T02:01:40.112Z,2.20
2023-05-17T02:04:08.641Z,3.50
2023-05-17T02:06:41.945Z,2.30
2023-05-17T02:09:11.658Z,4.10
2023-05-17T02:11:39.818Z,3.00
2023-05-17T02:14:13.965Z,4.03
2023-05-17T02:16:52.116Z,2.50
2023-05-17T02:19:22.521Z,2.20
2023-05-17T02:21:57.480Z,3.03
2023-05-17T02:24:26.768Z,5.13
2023-05-17T02:26:56.867Z,4.80
2023-05-17T02:29:26.465Z,3.30
2023-05-17T02:31:54.862Z,3.87
2023-05-17T02:34:28.327Z,4.30
2023-05-17T02:37:00.180Z,3.60
2023-05-17T02:39:28.052Z,3.57
2023-05-17T02:41:58.818Z,3.40
2023-05-17T02:44:30.163Z,2.97
2023-05-17T02:47:01.718Z,2.30
2023-05-17T02:49:34.652Z,2.57
2023-05-17T02:52:07.594Z,4.30
2023-05-17T02:54:39.472Z,4.57
2023-05-17T02:57:09.664Z,2.50
2023-05-17T02:59:41.427Z,5.20
2023-05-17T03:02:09.666Z,3.30
2023-05-17T03:04:39.501Z,2.90
2023-05-17T03:07:08.499Z,3.90
2023-05-17T03:09:36.334Z,2.87
2023-05-17T03:12:07.862Z,3.67
2023-05-17T03:14:36.262Z,3.37
2023-05-17T03:17:06.277Z,7.50
2023-05-17T03:19:34.605Z,3.40
2023-05-17T03:22:05.151Z,8.03
2023-05-17T03:24:33.915Z,4.07
2023-05-17T03:27:02.276Z,3.13
2023-05-17T03:29:30.685Z,3.17
2023-05-17T03:32:19.216Z,3.53
2023-05-17T03:34:49.514Z,3.87
2023-05-17T03:37:20.195Z,2.77
2023-05-17T03:39:50.520Z,4.07
2023-05-17T03:42:20.887Z,6.63
2023-05-17T03:44:48.890Z,2.47
2023-05-17T03:47:19.665Z,3.53
2023-05-17T03:49:56.740Z,3.00
2023-05-17T03:52:26.828Z,3.70
2023-05-17T03:54:57.059Z,4.43
2023-05-17T03:57:26.829Z,4.67
2023-05-17T03:59:55.187Z,3.10
2023-05-17T04:02:26.123Z,3.03
2023-05-17T04:05:00.873Z,5.30
2023-05-17T04:07:32.258Z,4.13
2023-05-17T04:10:03.797Z,4.97
2023-05-17T04:12:31.937Z,6.13
2023-05-17T04:15:00.172Z,4.77
2023-05-17T04:17:41.674Z,4.53
2023-05-17T04:20:11.169Z,3.67
2023-05-17T04:22:40.548Z,4.27
2023-05-17T04:25:13.730Z,3.70
2023-05-17T04:27:46.662Z,3.33
2023-05-17T04:30:15.118Z,4.10
2023-05-17T04:32:47.044Z,4.87
2023-05-17T04:35:19.269Z,7.63
2023-05-17T04:38:05.932Z,3.90
2023-05-17T04:40:37.459Z,2.80
2023-05-17T04:43:07.235Z,6.83
2023-05-17T04:45:35.853Z,3.13
2023-05-17T04:48:06.496Z,3.30
2023-05-17T04:50:36.165Z,2.40
2023-05-17T04:53:10.736Z,8.73
2023-05-17T04:55:38.688Z,7.30
2023-05-17T04:58:18.614Z,5.43
2023-05-17T05:00:48.190Z,5.53
2023-05-17T05:03:20.727Z,4.03
2023-05-17T05:05:55.602Z,7.33
2023-05-17T05:08:25.911Z,4.50
2023-05-17T05:11:00.480Z,7.67
2023-05-17T05:13:29.359Z,3.47
2023-05-17T05:16:01.555Z,5.00
2023-05-17T05:18:30.858Z,5.43
2023-05-17T05:21:00.808Z,5.63
2023-05-17T05:23:28.825Z,4.27
2023-05-17T05:25:59.001Z,4.53
2023-05-17T05:28:31.700Z,3.10
2023-05-17T05:31:02.457Z,3.63
2023-05-17T05:33:32.943Z,3.63
2023-05-17T05:36:02.802Z,3.03
2023-05-17T05:38:35.163Z,3.80
2023-05-17T05:41:04.044Z,3.67
2023-05-17T05:43:33.702Z,4.23
2023-05-17T05:46:01.516Z,4.50
2023-05-17T05:48:32.305Z,3.27
2023-05-17T05:51:03.987Z,3.40
2023-05-17T05:53:38.845Z,2.87
2023-05-17T05:56:10.009Z,4.67
2023-05-17T05:58:40.890Z,5.57
2023-05-17T06:01:15.397Z,4.40
2023-05-17T06:03:47.384Z,8.10
2023-05-17T06:06:19.889Z,7.03
2023-05-17T06:08:49.827Z,3.07
2023-05-17T06:11:24.474Z,4.97
2023-05-17T06:13:55.834Z,4.10
2023-05-17T06:16:23.880Z,3.00
2023-05-17T06:18:55.890Z,5.77
2023-05-17T06:21:28.326Z,5.00
2023-05-17T06:23:57.842Z,4.87
2023-05-17T06:26:29.345Z,6.10
2023-05-17T06:28:57.820Z,6.17
2023-05-17T06:31:29.729Z,4.73
2023-05-17T06:33:58.327Z,4.53
2023-05-17T06:36:32.403Z,5.37
2023-05-17T06:39:01.266Z,4.80
2023-05-17T06:41:30.756Z,8.93
2023-05-17T06:43:58.742Z,5.63
2023-05-17T06:46:28.537Z,3.57
2023-05-17T06:48:56.809Z,7.30
2023-05-17T06:51:26.715Z,5.73
2023-05-17T06:53:56.917Z,5.10
2023-05-17T06:56:25.004Z,3.80
2023-05-17T06:59:00.993Z,5.23
2023-05-17T07:01:30.344Z,4.00
2023-05-17T07:03:58.732Z,8.27
2023-05-17T07:06:27.992Z,8.20
2023-05-17T07:09:04.210Z,5.50
2023-05-17T07:11:34.827Z,7.20
2023-05-17T07:14:03.509Z,6.30
2023-05-17T07:16:31.806Z,6.63
2023-05-17T07:19:05.566Z,6.07
2023-05-17T07:21:36.898Z,5.40
2023-05-17T07:24:10.014Z,6.63
2023-05-17T07:26:38.780Z,7.57
2023-05-17T07:29:07.147Z,4.37
2023-05-17T07:31:39.564Z,9.97
2023-05-17T07:34:07.902Z,7.60
2023-05-17T07:36:36.222Z,6.53
2023-05-17T07:39:05.356Z,6.33
2023-05-17T07:41:35.248Z,6.60
2023-05-17T07:44:07.457Z,6.60
2023-05-17T07:46:36.962Z,4.70
2023-05-17T07:49:06.166Z,5.53
2023-05-17T07:51:34.619Z,9.33
2023-05-17T07:54:03.792Z,15.20
2023-05-17T07:56:33.870Z,9.03
2023-05-17T07:59:04.686Z,6.03
2023-05-17T08:01:33.351Z,6.67
2023-05-17T08:04:01.794Z,6.73
2023-05-17T08:06:33.943Z,8.70
2023-05-17T08:09:02.999Z,6.70
2023-05-17T08:11:48.283Z,7.13
2023-05-17T08:14:23.300Z,5.67
2023-05-17T08:16:57.181Z,4.87
2023-05-17T08:19:27.267Z,7.33
2023-05-17T08:21:58.886Z,8.90
2023-05-17T08:24:29.347Z,8.10
2023-05-17T08:26:58.958Z,10.57
2023-05-17T08:29:29.982Z,6.90
2023-05-17T08:31:58.219Z,7.53
2023-05-17T08:34:28.450Z,5.03
2023-05-17T08:36:57.173Z,7.60
2023-05-17T08:39:26.147Z,7.43
2023-05-17T08:41:59.675Z,5.93
2023-05-17T08:44:31.175Z,9.57
2023-05-17T08:47:03.680Z,8.70
2023-05-17T08:49:33.626Z,7.30
2023-05-17T08:52:07.163Z,6.93
2023-05-17T08:54:40.738Z,7.40
2023-05-17T08:57:11.936Z,5.93
2023-05-17T08:59:42.261Z,5.60
2023-05-17T09:02:13.259Z,6.33
2023-05-17T09:04:41.969Z,6.50
2023-05-17T09:07:15.289Z,7.50
2023-05-17T09:09:45.911Z,6.53
2023-05-17T09:12:20.351Z,8.33
2023-05-17T09:14:50.415Z,8.30
2023-05-17T09:17:23.776Z,8.33
2023-05-17T09:19:52.193Z,5.83
2023-05-17T09:22:26.329Z,4.97
2023-05-17T09:24:54.763Z,7.20
2023-05-17T09:27:23.127Z,6.17
2023-05-17T09:29:52.966Z,4.70
2023-05-17T09:32:22.547Z,6.70
2023-05-17T09:34:51.160Z,6.33
2023-05-17T09:37:20.981Z,11.13
2023-05-17T09:39:49.160Z,9.33
2023-05-17T09:42:20.054Z,7.93
2023-05-17T09:45:02.172Z,6.20
2023-05-17T09:47:31.458Z,4.40
2023-05-17T09:50:05.182Z,6.33
2023-05-17T09:52:37.573Z,10.63
2023-05-17T09:55:10.354Z,8.60
2023-05-17T09:57:39.815Z,4.80
2023-05-17T10:00:14.066Z,6.27
2023-05-17T10:02:45.150Z,9.33
2023-05-17T10:05:14.804Z,7.10
2023-05-17T10:07:46.742Z,7.90
2023-05-17T10:10:18.472Z,7.70
2023-05-17T10:12:47.991Z,8.50
2023-05-17T10:15:20.802Z,7.03
2023-05-17T10:17:48.992Z,9.77
2023-05-17T10:20:18.657Z,4.60
2023-05-17T10:22:49.235Z,7.70
2023-05-17T10:25:17.987Z,6.40
2023-05-17T10:27:47.325Z,5.40
2023-05-17T10:30:16.194Z,5.80
2023-05-17T10:32:49.797Z,6.80
2023-05-17T10:35:18.512Z,6.20
2023-05-17T10:37:56.443Z,5.83
2023-05-17T10:40:24.970Z,6.67
2023-05-17T10:42:55.485Z,7.80
2023-05-17T10:45:26.094Z,6.63
2023-05-17T10:47:58.873Z,6.23
2023-05-17T10:50:29.675Z,5.67
2023-05-17T10:53:02.373Z,7.43
2023-05-17T10:55:39.355Z,8.63
2023-05-17T10:58:19.345Z,10.23
2023-05-17T11:00:49.387Z,4.50
2023-05-17T11:03:21.097Z,7.70
2023-05-17T11:06:23.567Z,6.70
2023-05-17T11:09:17.078Z,9.17
2023-05-17T11:12:08.444Z,5.67
2023-05-17T11:14:56.748Z,7.53
2023-05-17T11:17:26.948Z,7.60
2023-05-17T11:20:16.887Z,6.53
2023-05-17T11:22:59.139Z,5.17
2023-05-17T11:25:30.395Z,5.43
2023-05-17T11:28:00.355Z,5.53
2023-05-17T11:30:31.787Z,10.23
2023-05-17T11:33:02.291Z,6.00
2023-05-17T11:35:36.133Z,6.90
2023-05-17T11:38:20.322Z,7.23
2023-05-17T11:40:51.496Z,6.93
2023-05-17T11:43:30.978Z,5.43
2023-05-17T11:46:02.628Z,4.70
2023-05-17T11:48:31.879Z,6.20
2023-05-17T11:51:02.689Z,8.07
2023-05-17T11:53:32.589Z,5.53
2023-05-17T11:56:04.871Z,7.57
2023-05-17T11:58:33.306Z,5.00
2023-05-17T12:01:04.352Z,6.67
2023-05-17T12:03:33.545Z,7.73
2023-05-17T12:06:07.238Z,5.77
2023-05-17T12:08:36.540Z,4.60
2023-05-17T12:11:06.337Z,7.40
2023-05-17T12:13:35.846Z,6.23
2023-05-17T12:16:07.599Z,4.80
2023-05-17T12:18:47.147Z,6.70
2023-05-17T12:21:21.425Z,9.53
2023-05-17T12:23:52.714Z,6.90
2023-05-17T12:26:21.683Z,6.90
2023-05-17T12:28:55.253Z,8.90
2023-05-17T12:31:26.944Z,5.60
2023-05-17T12:33:55.468Z,4.87
2023-05-17T12:36:34.990Z,8.43
2023-05-17T12:39:09.000Z,4.90
2023-05-17T12:41:38.644Z,7.63
2023-05-17T12:46:41.835Z,5.73
2023-05-17T12:49:11.597Z,6.50
2023-05-17T12:51:46.420Z,4.63
2023-05-17T12:54:16.538Z,4.80
2023-05-17T12:56:45.261Z,6.57
2023-05-17T12:59:16.772Z,4.40
2023-05-17T13:01:45.664Z,7.77
2023-05-17T13:04:17.671Z,4.37
2023-05-17T13:06:48.634Z,6.80
2023-05-17T13:09:18.754Z,5.90
2023-05-17T13:11:55.413Z,4.43
2023-05-17T13:14:45.378Z,4.07
2023-05-17T13:17:27.050Z,9.93
2023-05-17T13:19:57.442Z,9.67
2023-05-17T13:22:30.380Z,9.97
2023-05-17T13:25:05.055Z,8.23
2023-05-17T13:27:33.196Z,6.57
2023-05-17T13:30:01.224Z,5.50
2023-05-17T13:32:31.938Z,6.40
2023-05-17T13:35:02.105Z,4.50
2023-05-17T13:37:31.479Z,5.63
2023-05-17T13:40:02.699Z,8.63
2023-05-17T13:42:30.738Z,6.60
2023-05-17T13:45:01.651Z,7.43
2023-05-17T13:47:32.527Z,6.77
2023-05-17T13:50:01.861Z,9.57
2023-05-17T13:52:33.021Z,5.40
2023-05-17T13:55:00.913Z,5.53
2023-05-17T13:57:29.222Z,9.37
2023-05-17T13:59:57.370Z,9.10
2023-05-17T14:02:25.527Z,6.33
2023-05-17T14:05:04.749Z,3.93
2023-05-17T14:07:36.916Z,4.40
2023-05-17T14:10:05.723Z,8.33
2023-05-17T14:12:33.688Z,8.30
2023-05-17T14:15:04.810Z,6.80
2023-05-17T14:17:35.975Z,5.47
2023-05-17T14:20:05.071Z,5.03
2023-05-17T14:22:34.515Z,7.43
2023-05-17T14:25:02.801Z,6.70
2023-05-17T14:27:35.247Z,6.47
2023-05-17T14:30:27.919Z,7.23
2023-05-17T14:32:56.080Z,5.40
2023-05-17T14:35:27.841Z,9.33
2023-05-17T14:38:17.757Z,6.90
2023-05-17T14:40:51.316Z,12.00
2023-05-17T14:43:21.696Z,4.87
2023-05-17T14:45:49.782Z,4.30
2023-05-17T14:48:17.596Z,7.50
2023-05-17T14:50:48.230Z,10.23
2023-05-17T14:53:17.651Z,5.10
2023-05-17T14:55:45.841Z,8.90
2023-05-17T14:58:16.667Z,5.73
2023-05-17T15:00:48.555Z,5.63
2023-05-17T15:03:24.714Z,6.23
2023-05-17T15:05:55.469Z,7.20
2023-05-17T15:08:48.345Z,6.20
2023-05-17T15:11:20.598Z,7.17
2023-05-17T15:13:49.021Z,7.60
2023-05-17T15:16:19.993Z,9.40
2023-05-17T15:18:48.394Z,5.13
2023-05-17T15:21:17.665Z,5.77
2023-05-17T15:23:47.936Z,5.40
2023-05-17T15:26:17.539Z,5.73
2023-05-17T15:29:02.412Z,8.27
2023-05-17T15:31:32.628Z,5.73
2023-05-17T15:34:00.656Z,5.10
2023-05-17T15:36:31.574Z,6.20
2023-05-17T15:39:00.882Z,8.20
2023-05-17T15:41:30.305Z,6.00
2023-05-17T15:44:05.506Z,5.77
2023-05-17T15:46:33.417Z,6.20
2023-05-17T15:49:03.875Z,8.80
2023-05-17T15:51:36.845Z,9.80
2023-05-17T15:54:06.292Z,5.47
2023-05-17T15:56:34.255Z,6.17
2023-05-17T15:59:14.105Z,6.50
2023-05-17T16:01:46.255Z,8.83
2023-05-17T16:04:16.225Z,12.10
2023-05-17T16:06:50.009Z,5.90
2023-05-17T16:09:23.051Z,7.27
2023-05-17T16:11:50.892Z,4.60
2023-05-17T16:14:18.687Z,7.00
2023-05-17T16:16:46.592Z,10.17
2023-05-17T16:19:22.738Z,5.57
2023-05-17T16:21:52.309Z,6.60
2023-05-17T16:24:24.609Z,8.87
2023-05-17T16:26:52.443Z,8.23
2023-05-17T16:29:22.386Z,6.07
2023-05-17T16:31:51.514Z,7.87
2023-05-17T16:34:21.429Z,7.43
2023-05-17T16:36:50.521Z,10.03
2023-05-17T16:39:18.387Z,5.57
2023-05-17T16:41:50.470Z,5.30
2023-05-17T16:44:18.249Z,8.07
2023-05-17T16:46:47.781Z,8.30
2023-05-17T16:49:18.893Z,6.50
2023-05-17T16:51:49.343Z,5.90
2023-05-17T16:54:17.594Z,7.30
2023-05-17T16:56:46.067Z,7.33
2023-05-17T16:59:18.051Z,5.13
2023-05-17T17:01:46.650Z,6.53
2023-05-17T17:04:17.411Z,5.43
2023-05-17T17:06:45.365Z,7.93
2023-05-17T17:09:13.234Z,7.17
2023-05-17T17:11:41.343Z,5.53
2023-05-17T17:14:12.011Z,8.43
2023-05-17T17:16:41.984Z,6.90
2023-05-17T17:19:10.159Z,7.90
2023-05-17T17:21:38.112Z,4.80
2023-05-17T17:24:06.987Z,5.40
2023-05-17T17:26:37.873Z,7.40
2023-05-17T17:29:06.092Z,6.80
2023-05-17T17:31:39.409Z,10.43
2023-05-17T17:34:08.846Z,5.97
2023-05-17T17:36:39.403Z,8.67
2023-05-17T17:39:18.439Z,6.17
2023-05-17T17:41:46.384Z,8.60
2023-05-17T17:44:14.242Z,6.53
2023-05-17T17:46:42.506Z,7.87
2023-05-17T17:49:11.949Z,8.10
2023-05-17T17:51:39.849Z,6.97
2023-05-17T17:54:12.503Z,7.90
2023-05-17T17:56:41.978Z,6.33
2023-05-17T17:59:10.043Z,6.10
2023-05-17T18:01:40.957Z,8.07
2023-05-17T18:04:14.551Z,7.70
2023-05-17T18:06:44.441Z,6.03
2023-05-17T18:09:12.208Z,9.27
2023-05-17T18:11:50.979Z,8.13
2023-05-17T18:14:24.803Z,5.37
2023-05-17T18:16:57.973Z,5.17
2023-05-17T18:19:31.838Z,5.73
2023-05-17T18:22:01.106Z,6.40
2023-05-17T18:24:30.173Z,6.70
2023-05-17T18:26:58.086Z,7.03
2023-05-17T18:29:26.089Z,6.40
2023-05-17T18:31:55.338Z,7.63
2023-05-17T18:34:31.459Z,5.73
2023-05-17T18:37:02.066Z,8.10
2023-05-17T18:39:30.240Z,8.87
2023-05-17T18:41:59.158Z,6.13
2023-05-17T18:44:26.931Z,8.00
2023-05-17T18:46:54.913Z,5.93
2023-05-17T18:49:22.955Z,6.67
2023-05-17T18:51:54.570Z,7.13
2023-05-17T18:54:26.086Z,8.27
2023-05-17T18:56:57.828Z,6.07
2023-05-17T18:59:25.759Z,6.73
2023-05-17T19:01:55.496Z,3.80
2023-05-17T19:04:24.642Z,6.00
2023-05-17T19:06:55.005Z,7.70
2023-05-17T19:09:25.387Z,6.60
2023-05-17T19:11:57.344Z,5.83
2023-05-17T19:14:28.099Z,10.63
2023-05-17T19:16:56.989Z,6.83
2023-05-17T19:19:25.362Z,8.07
2023-05-17T19:21:56.175Z,7.50
2023-05-17T19:24:29.866Z,6.27
2023-05-17T19:27:00.746Z,8.43
2023-05-17T19:29:35.537Z,6.27
2023-05-17T19:32:03.550Z,5.50
2023-05-17T19:34:34.034Z,9.27
2023-05-17T19:37:01.884Z,10.80
2023-05-17T19:39:33.040Z,12.53
2023-05-17T19:42:09.917Z,5.70
2023-05-17T19:44:40.662Z,5.80
2023-05-17T19:47:10.105Z,9.00
2023-05-17T19:49:38.038Z,7.00
2023-05-17T19:52:07.951Z,8.30
2023-05-17T19:54:37.211Z,6.20
2023-05-17T19:57:09.639Z,8.63
2023-05-17T19:59:37.486Z,9.50
2023-05-17T20:02:05.584Z,8.30
2023-05-17T20:04:35.915Z,9.23
2023-05-17T20:07:03.849Z,8.37
2023-05-17T20:09:37.040Z,8.37
2023-05-17T20:12:07.860Z,6.63
2023-05-17T20:14:38.645Z,6.83
2023-05-17T20:17:08.642Z,6.77
2023-05-17T20:19:38.150Z,6.23
2023-05-17T20:22:08.812Z,9.13
2023-05-17T20:24:39.231Z,8.87
2023-05-17T20:27:11.637Z,8.90
2023-05-17T20:29:43.652Z,9.40
2023-05-17T20:32:11.538Z,7.93
2023-05-17T20:34:39.402Z,10.50
2023-05-17T20:37:14.495Z,7.97
2023-05-17T20:39:46.322Z,11.70
2023-05-17T20:42:18.071Z,15.43
2023-05-17T20:44:46.556Z,7.97
2023-05-17T20:47:17.710Z,8.90
2023-05-17T20:49:47.842Z,10.60
2023-05-17T20:52:22.065Z,10.33
2023-05-17T20:55:01.356Z,10.50
2023-05-17T20:57:30.613Z,12.43
2023-05-17T20:59:58.782Z,18.27
2023-05-17T21:02:26.727Z,20.63
2023-05-17T21:04:55.049Z,23.07
2023-05-17T21:07:27.590Z,18.13
2023-05-17T21:09:55.659Z,17.40
2023-05-17T21:12:24.997Z,14.00
2023-05-17T21:15:14.539Z,15.20
2023-05-17T21:17:43.492Z,11.60
2023-05-17T21:20:14.066Z,11.80
2023-05-17T21:22:44.933Z,12.47
2023-05-17T21:25:14.743Z,11.87
2023-05-17T21:27:45.036Z,11.20
2023-05-17T21:30:14.854Z,11.80
2023-05-17T21:32:55.106Z,9.27
2023-05-17T21:35:30.142Z,9.93
2023-05-17T21:37:58.006Z,9.83
2023-05-17T21:40:32.978Z,11.47
2023-05-17T21:43:01.288Z,10.03
2023-05-17T21:45:31.122Z,9.80
2023-05-17T21:48:01.402Z,14.30
2023-05-17T21:50:29.287Z,9.20
2023-05-17T21:52:57.310Z,11.70
2023-05-17T21:55:32.487Z,11.43
2023-05-17T21:58:16.278Z,9.57
2023-05-17T22:00:45.526Z,8.77
2023-05-17T22:03:13.522Z,8.93
2023-05-17T22:05:46.727Z,11.63
2023-05-17T22:08:14.642Z,10.93
2023-05-17T22:10:44.563Z,12.17
2023-05-17T22:13:18.780Z,10.10
2023-05-17T22:15:48.745Z,9.73
2023-05-17T22:18:19.480Z,10.87
2023-05-17T22:20:53.417Z,8.00
2023-05-17T22:23:21.344Z,10.47
2023-05-17T22:25:49.103Z,8.40
2023-05-17T22:28:17.043Z,8.37
2023-05-17T22:30:46.536Z,8.03
2023-05-17T22:33:18.555Z,8.77
2023-05-17T22:35:48.940Z,9.13
2023-05-17T22:38:19.314Z,6.07
2023-05-17T22:40:51.444Z,8.33
2023-05-17T22:43:21.531Z,8.07
2023-05-17T22:46:00.158Z,9.43
2023-05-17T22:48:41.332Z,8.80
2023-05-17T22:51:13.967Z,5.80
2023-05-17T22:53:42.146Z,6.03
2023-05-17T22:56:15.187Z,9.20
2023-05-17T22:58:44.348Z,7.27
2023-05-17T23:01:14.327Z,6.83
2023-05-17T23:03:43.729Z,5.83
2023-05-17T23:06:21.894Z,5.57
2023-05-17T23:08:54.264Z,7.33
2023-05-17T23:11:22.540Z,8.97
2023-05-17T23:13:50.787Z,6.53
2023-05-17T23:16:26.017Z,7.90
2023-05-17T23:19:09.003Z,8.17
2023-05-17T23:21:42.388Z,6.80
2023-05-17T23:24:14.105Z,6.90
2023-05-17T23:26:51.189Z,8.80
2023-05-17T23:29:22.015Z,8.37
2023-05-17T23:31:50.706Z,16.67
2023-05-17T23:34:25.996Z,7.30
2023-05-17T23:36:53.799Z,9.03
2023-05-17T23:39:27.358Z,8.73
2023-05-17T23:41:58.267Z,6.13
2023-05-17T23:44:27.509Z,9.37
2023-05-17T23:46:58.532Z,8.20
2023-05-17T23:49:29.055Z,8.33
2023-05-17T23:51:59.654Z,6.00
2023-05-17T23:54:28.413Z,7.03
2023-05-17T23:56:56.485Z,9.70
2023-05-17T23:59:27.104Z,10.57
